createdAt,value
2023-05-17T00:00:44.606Z,8.20
2023-05-17T00:03:13.293Z,8.20
2023-05-17T00:05:43.510Z,8.20
2023-05-17T00:08:12.028Z,8.10
2023-05-17T00:10:40.905Z,8.10
2023-05-17T00:13:10.090Z,8.10
2023-05-17T00:15:38.635Z,8.00
2023-05-17T00:18:07.495Z,8.00
2023-05-17T00:20:37.022Z,8.00
2023-05-17T00:23:07.298Z,8.00
2023-05-17T00:25:35.973Z,7.90
2023-05-17T00:28:04.554Z,7.80
2023-05-17T00:30:33.463Z,7.90
2023-05-17T00:33:02.077Z,7.80
2023-05-17T00:35:31.190Z,7.80
2023-05-17T00:38:00.029Z,7.80
2023-05-17T00:40:30.674Z,7.80
2023-05-17T00:42:59.225Z,7.70
2023-05-17T00:45:28.009Z,7.70
2023-05-17T00:47:57.152Z,7.70
2023-05-17T00:50:26.209Z,7.60
2023-05-17T00:52:55.267Z,7.60
2023-05-17T00:55:24.058Z,7.60
2023-05-17T00:57:54.294Z,7.60
2023-05-17T01:00:23.340Z,7.60
2023-05-17T01:02:53.357Z,7.60
2023-05-17T01:05:22.068Z,7.70
2023-05-17T01:07:52.049Z,7.60
2023-05-17T01:10:20.728Z,7.70
2023-05-17T01:13:02.450Z,7.60
2023-05-17T01:15:35.249Z,7.60
2023-05-17T01:18:12.514Z,7.60
2023-05-17T01:20:44.937Z,7.50
2023-05-17T01:23:28.960Z,7.50
2023-05-17T01:26:06.463Z,7.50
2023-05-17T01:28:39.124Z,7.40
2023-05-17T01:31:10.656Z,7.40
2023-05-17T01:33:40.168Z,7.40
2023-05-17T01:36:10.232Z,7.40
2023-05-17T01:38:38.758Z,7.40
2023-05-17T01:41:25.454Z,7.40
2023-05-17T01:44:04.387Z,7.40
2023-05-17T01:46:40.949Z,7.40
2023-05-17T01:49:13.769Z,7.40
2023-05-17T01:51:49.388Z,7.40
2023-05-17T01:54:22.340Z,7.40
2023-05-17T01:56:57.384Z,7.40
2023-05-17T01:59:29.117Z,7.30
2023-05-17T02:02:06.173Z,7.30
2023-05-17T02:04:35.154Z,7.30
2023-05-17T02:07:03.888Z,7.20
2023-05-17T02:09:33.065Z,7.20
2023-05-17T02:12:01.873Z,7.20
2023-05-17T02:14:32.412Z,7.20
2023-05-17T02:17:00.952Z,7.20
2023-05-17T02:19:29.552Z,7.20
2023-05-17T02:21:58.357Z,7.10
2023-05-17T02:24:27.145Z,7.20
2023-05-17T02:26:56.158Z,7.10
2023-05-17T02:29:24.952Z,7.10
2023-05-17T02:31:55.169Z,7.10
2023-05-17T02:34:24.003Z,7.10
2023-05-17T02:36:53.028Z,7.10
2023-05-17T02:39:21.642Z,7.00
2023-05-17T02:41:50.607Z,7.00
2023-05-17T02:44:19.173Z,7.00
2023-05-17T02:46:48.000Z,7.00
2023-05-17T02:49:18.162Z,7.00
2023-05-17T02:51:46.801Z,7.00
2023-05-17T02:54:15.471Z,7.00
2023-05-17T02:56:44.136Z,7.00
2023-05-17T02:59:15.374Z,7.00
2023-05-17T03:01:44.014Z,7.10
2023-05-17T03:04:13.025Z,7.10
2023-05-17T03:06:43.478Z,7.10
2023-05-17T03:09:12.077Z,7.20
2023-05-17T03:11:40.966Z,7.20
2023-05-17T03:14:10.056Z,7.20
2023-05-17T03:16:38.571Z,7.20
2023-05-17T03:19:07.216Z,7.20
2023-05-17T03:21:36.120Z,7.20
2023-05-17T03:24:07.030Z,7.20
2023-05-17T03:26:35.374Z,7.10
2023-05-17T03:29:04.187Z,7.10
2023-05-17T03:31:33.251Z,7.10
2023-05-17T03:34:02.626Z,7.10
2023-05-17T03:36:31.657Z,7.10
2023-05-17T03:39:00.587Z,7.10
2023-05-17T03:41:30.927Z,7.10
2023-05-17T03:43:59.657Z,7.10
2023-05-17T03:46:28.244Z,7.10
2023-05-17T03:48:57.233Z,7.10
2023-05-17T03:51:26.220Z,7.10
2023-05-17T03:54:01.188Z,7.00
2023-05-17T03:56:31.355Z,7.00
2023-05-17T03:59:00.337Z,7.00
2023-05-17T04:01:29.166Z,7.00
2023-05-17T04:03:57.798Z,7.10
2023-05-17T04:06:27.122Z,7.10
2023-05-17T04:08:56.666Z,7.10
2023-05-17T04:11:27.364Z,7.10
2023-05-17T04:13:58.199Z,7.10
2023-05-17T04:16:27.004Z,7.10
2023-05-17T04:18:55.934Z,7.20
2023-05-17T04:21:24.507Z,7.30
2023-05-17T04:23:52.970Z,7.30
2023-05-17T04:26:22.118Z,7.30
2023-05-17T04:28:50.883Z,7.40
2023-05-17T04:31:21.607Z,7.50
2023-05-17T04:33:51.175Z,7.50
2023-05-17T04:36:19.695Z,7.60
2023-05-17T04:38:48.574Z,7.60
2023-05-17T04:41:17.994Z,7.70
2023-05-17T04:43:46.823Z,7.80
2023-05-17T04:46:15.467Z,7.80
2023-05-17T04:48:45.603Z,7.90
2023-05-17T04:51:14.104Z,7.90
2023-05-17T04:53:42.714Z,8.00
2023-05-17T04:56:11.311Z,8.00
2023-05-17T04:58:41.208Z,8.10
2023-05-17T05:01:09.676Z,8.10
2023-05-17T05:03:38.414Z,8.20
2023-05-17T05:06:09.229Z,8.20
2023-05-17T05:08:39.833Z,8.30
2023-05-17T05:11:08.411Z,8.30
2023-05-17T05:13:38.940Z,8.30
2023-05-17T05:16:08.882Z,8.40
2023-05-17T05:18:37.853Z,8.40
2023-05-17T05:21:08.262Z,8.50
2023-05-17T05:23:37.106Z,8.60
2023-05-17T05:26:06.646Z,8.60
2023-05-17T05:28:35.179Z,8.70
2023-05-17T05:31:03.887Z,8.70
2023-05-17T05:33:33.300Z,8.90
2023-05-17T05:36:02.064Z,9.00
2023-05-17T05:38:32.757Z,9.00
2023-05-17T05:41:01.814Z,9.10
2023-05-17T05:43:30.978Z,9.20
2023-05-17T05:45:59.640Z,9.20
2023-05-17T05:48:28.385Z,9.20
2023-05-17T05:50:57.322Z,9.30
2023-05-17T05:53:26.586Z,9.40
2023-05-17T05:55:56.556Z,9.50
2023-05-17T05:58:25.281Z,9.60
2023-05-17T06:00:54.280Z,9.80
2023-05-17T06:03:22.764Z,9.80
2023-05-17T06:05:51.502Z,9.80
2023-05-17T06:08:23.135Z,9.90
2023-05-17T06:10:51.869Z,10.00
2023-05-17T06:13:25.291Z,9.90
2023-05-17T06:15:54.000Z,9.90
2023-05-17T06:18:22.649Z,10.00
2023-05-17T06:20:51.555Z,10.00
2023-05-17T06:23:20.274Z,10.00
2023-05-17T06:25:48.756Z,10.00
2023-05-17T06:28:17.242Z,10.00
2023-05-17T06:30:47.178Z,10.20
2023-05-17T06:33:15.874Z,10.40
2023-05-17T06:35:55.602Z,10.40
2023-05-17T06:38:26.614Z,10.40
2023-05-17T06:40:55.883Z,10.50
2023-05-17T06:43:24.668Z,10.60
2023-05-17T06:45:54.570Z,10.60
2023-05-17T06:48:23.547Z,10.70
2023-05-17T06:50:52.530Z,10.80
2023-05-17T06:53:21.356Z,10.90
2023-05-17T06:55:50.504Z,10.90
2023-05-17T06:58:19.123Z,10.90
2023-05-17T07:00:47.973Z,11.00
2023-05-17T07:03:17.942Z,11.20
2023-05-17T07:05:47.074Z,11.40
2023-05-17T07:08:16.511Z,11.40
2023-05-17T07:10:45.703Z,11.20
2023-05-17T07:13:14.694Z,11.20
2023-05-17T07:15:43.735Z,11.30
2023-05-17T07:18:12.693Z,11.30
2023-05-17T07:20:43.186Z,11.30
2023-05-17T07:23:13.159Z,11.40
2023-05-17T07:25:43.591Z,11.60
2023-05-17T07:28:12.366Z,11.70
2023-05-17T07:30:41.256Z,11.80
2023-05-17T07:33:10.557Z,11.80
2023-05-17T07:35:39.946Z,11.70
2023-05-17T07:38:12.378Z,11.60
2023-05-17T07:40:41.026Z,11.50
2023-05-17T07:43:11.191Z,11.50
2023-05-17T07:45:41.061Z,11.50
2023-05-17T07:48:09.902Z,11.50
2023-05-17T07:50:38.983Z,11.40
2023-05-17T07:53:07.702Z,11.30
2023-05-17T07:55:38.029Z,11.40
2023-05-17T07:58:06.674Z,11.60
2023-05-17T08:00:35.362Z,11.80
2023-05-17T08:03:04.622Z,12.00
2023-05-17T08:05:33.338Z,12.30
2023-05-17T08:08:02.630Z,12.60
2023-05-17T08:10:31.845Z,12.70
2023-05-17T08:13:05.080Z,12.90
2023-05-17T08:15:33.841Z,13.00
2023-05-17T08:18:04.836Z,13.00
2023-05-17T08:20:34.341Z,13.00
2023-05-17T08:23:03.130Z,12.80
2023-05-17T08:25:34.623Z,12.80
2023-05-17T08:28:05.051Z,13.00
2023-05-17T08:30:33.631Z,13.40
2023-05-17T08:33:04.592Z,13.40
2023-05-17T08:35:33.578Z,13.60
2023-05-17T08:38:02.838Z,13.60
2023-05-17T08:40:32.684Z,13.50
2023-05-17T08:43:03.106Z,13.60
2023-05-17T08:45:33.786Z,13.80
2023-05-17T08:48:03.872Z,13.80
2023-05-17T08:50:35.522Z,13.70
2023-05-17T08:53:04.405Z,13.60
2023-05-17T08:55:34.686Z,13.50
2023-05-17T08:58:04.487Z,13.50
2023-05-17T09:00:35.157Z,13.50
2023-05-17T09:03:04.117Z,13.50
2023-05-17T09:05:33.389Z,13.40
2023-05-17T09:08:03.466Z,13.20
2023-05-17T09:10:32.754Z,13.50
2023-05-17T09:13:02.204Z,13.80
2023-05-17T09:15:31.522Z,14.10
2023-05-17T09:18:02.372Z,14.30
2023-05-17T09:20:34.749Z,14.50
2023-05-17T09:23:05.803Z,14.30
2023-05-17T09:25:35.052Z,14.20
2023-05-17T09:28:04.714Z,14.20
2023-05-17T09:30:34.677Z,14.30
2023-05-17T09:33:10.923Z,14.30
2023-05-17T09:35:42.976Z,14.50
2023-05-17T09:38:13.007Z,14.50
2023-05-17T09:40:42.476Z,14.60
2023-05-17T09:43:12.112Z,14.70
2023-05-17T09:45:41.406Z,14.80
2023-05-17T09:48:16.900Z,15.00
2023-05-17T09:50:49.922Z,15.10
2023-05-17T09:53:26.380Z,15.10
2023-05-17T09:55:57.297Z,15.10
2023-05-17T09:58:27.139Z,15.30
2023-05-17T10:00:57.156Z,15.60
2023-05-17T10:03:32.057Z,15.60
2023-05-17T10:06:02.680Z,15.70
2023-05-17T10:08:34.047Z,15.40
2023-05-17T10:11:10.298Z,15.50
2023-05-17T10:13:45.689Z,15.80
2023-05-17T10:16:17.846Z,16.10
2023-05-17T10:18:49.403Z,16.30
2023-05-17T10:21:19.145Z,16.20
2023-05-17T10:23:49.642Z,16.20
2023-05-17T10:26:18.855Z,16.20
2023-05-17T10:28:54.545Z,16.00
2023-05-17T10:31:24.435Z,16.00
2023-05-17T10:33:55.479Z,16.00
2023-05-17T10:36:26.419Z,16.00
2023-05-17T10:38:55.618Z,15.80
2023-05-17T10:41:27.114Z,16.00
2023-05-17T10:43:57.047Z,15.60
2023-05-17T10:46:31.045Z,15.80
2023-05-17T10:49:03.167Z,15.90
2023-05-17T10:51:33.633Z,15.90
2023-05-17T10:54:12.935Z,16.20
2023-05-17T10:56:43.286Z,16.40
2023-05-17T10:59:23.159Z,16.70
2023-05-17T11:02:05.714Z,16.70
2023-05-17T11:04:37.920Z,16.90
2023-05-17T11:07:27.448Z,17.10
2023-05-17T11:09:58.022Z,17.10
2023-05-17T11:12:38.413Z,17.00
2023-05-17T11:15:11.087Z,17.00
2023-05-17T11:17:51.765Z,17.00
2023-05-17T11:20:37.699Z,16.90
2023-05-17T11:23:08.860Z,16.90
2023-05-17T11:25:39.778Z,17.30
2023-05-17T11:28:10.360Z,17.00
2023-05-17T11:30:52.000Z,17.20
2023-05-17T11:33:33.014Z,17.10
2023-05-17T11:36:09.119Z,17.00
2023-05-17T11:38:38.674Z,16.90
2023-05-17T11:43:52.246Z,17.20
2023-05-17T11:46:22.726Z,17.30
2023-05-17T11:48:53.357Z,17.00
2023-05-17T11:51:25.175Z,17.00
2023-05-17T11:53:56.602Z,17.20
2023-05-17T11:56:35.637Z,17.40
2023-05-17T11:59:11.578Z,17.70
2023-05-17T12:01:47.949Z,17.80
2023-05-17T12:04:27.295Z,17.90
2023-05-17T12:07:01.863Z,17.50
2023-05-17T12:09:31.602Z,17.20
2023-05-17T12:12:04.775Z,17.40
2023-05-17T12:14:35.205Z,17.60
2023-05-17T12:17:07.667Z,17.80
2023-05-17T12:19:36.558Z,17.50
2023-05-17T12:22:12.572Z,17.40
2023-05-17T12:24:42.685Z,17.40
2023-05-17T12:27:12.007Z,17.50
2023-05-17T12:29:41.184Z,17.40
2023-05-17T12:32:11.856Z,17.80
2023-05-17T12:34:42.093Z,18.00
2023-05-17T12:37:13.519Z,18.00
2023-05-17T12:39:42.394Z,18.00
2023-05-17T12:42:11.533Z,17.70
2023-05-17T12:44:40.702Z,17.80
2023-05-17T12:47:12.623Z,17.80
2023-05-17T12:49:55.285Z,17.70
2023-05-17T12:52:25.919Z,17.70
2023-05-17T12:54:54.533Z,17.70
2023-05-17T12:57:23.492Z,17.70
2023-05-17T12:59:54.672Z,17.40
2023-05-17T13:02:25.376Z,17.60
2023-05-17T13:04:54.254Z,17.70
2023-05-17T13:07:26.171Z,17.50
2023-05-17T13:09:58.770Z,17.60
2023-05-17T13:12:27.418Z,17.40
2023-05-17T13:14:56.950Z,17.40
2023-05-17T13:17:37.382Z,17.40
2023-05-17T13:20:10.559Z,17.50
2023-05-17T13:22:47.784Z,17.50
2023-05-17T13:25:17.137Z,17.80
2023-05-17T13:27:49.153Z,17.50
2023-05-17T13:30:18.737Z,17.50
2023-05-17T13:32:47.863Z,17.60
2023-05-17T13:35:16.754Z,17.40
2023-05-17T13:37:47.480Z,17.50
2023-05-17T13:40:18.787Z,17.60
2023-05-17T13:42:47.696Z,17.60
2023-05-17T13:45:16.720Z,17.50
2023-05-17T13:47:45.833Z,17.60
2023-05-17T13:50:17.377Z,17.80
2023-05-17T13:52:47.761Z,17.70
2023-05-17T13:55:16.633Z,17.70
2023-05-17T13:57:47.569Z,17.60
2023-05-17T14:00:17.006Z,17.70
2023-05-17T14:02:47.075Z,17.60
2023-05-17T14:05:16.017Z,17.80
2023-05-17T14:07:44.813Z,17.90
2023-05-17T14:10:14.908Z,18.00
2023-05-17T14:12:43.861Z,18.00
2023-05-17T14:15:13.688Z,18.00
2023-05-17T14:17:43.085Z,18.10
2023-05-17T14:20:15.683Z,18.00
2023-05-17T14:22:44.328Z,17.70
2023-05-17T14:25:14.953Z,17.50
2023-05-17T14:27:43.763Z,17.30
2023-05-17T14:30:13.874Z,17.40
2023-05-17T14:32:42.996Z,17.40
2023-05-17T14:35:12.466Z,17.20
2023-05-17T14:37:41.000Z,17.20
2023-05-17T14:40:10.334Z,17.50
2023-05-17T14:42:40.535Z,17.50
2023-05-17T14:45:10.477Z,17.30
2023-05-17T14:47:39.139Z,17.40
2023-05-17T14:50:08.663Z,17.40
2023-05-17T14:52:38.808Z,17.30
2023-05-17T14:55:09.276Z,17.00
2023-05-17T14:57:40.580Z,17.00
2023-05-17T15:00:11.675Z,17.00
2023-05-17T15:02:40.715Z,16.90
2023-05-17T15:05:10.779Z,17.00
2023-05-17T15:07:39.907Z,16.80
2023-05-17T15:10:10.334Z,16.80
2023-05-17T15:12:41.006Z,16.80
2023-05-17T15:15:11.466Z,16.60
2023-05-17T15:17:40.900Z,16.40
2023-05-17T15:20:10.922Z,16.20
2023-05-17T15:22:39.616Z,16.00
2023-05-17T15:25:11.956Z,16.20
2023-05-17T15:27:42.410Z,16.40
2023-05-17T15:30:13.427Z,16.50
2023-05-17T15:32:42.696Z,16.40
2023-05-17T15:35:12.579Z,16.40
2023-05-17T15:37:41.721Z,16.40
2023-05-17T15:40:12.322Z,16.30
2023-05-17T15:42:42.878Z,16.30
2023-05-17T15:45:12.399Z,16.30
2023-05-17T15:47:43.645Z,16.30
2023-05-17T15:50:12.976Z,16.30
2023-05-17T15:52:41.964Z,16.40
2023-05-17T15:55:12.231Z,16.40
2023-05-17T15:57:42.988Z,16.20
2023-05-17T16:00:25.224Z,16.10
2023-05-17T16:02:53.955Z,16.10
2023-05-17T16:05:22.706Z,16.10
2023-05-17T16:07:51.342Z,16.20
2023-05-17T16:10:20.526Z,16.30
2023-05-17T16:12:50.870Z,16.30
2023-05-17T16:15:21.813Z,16.20
2023-05-17T16:17:51.586Z,16.20
2023-05-17T16:20:21.943Z,16.10
2023-05-17T16:22:52.448Z,16.10
2023-05-17T16:25:23.618Z,16.10
2023-05-17T16:27:54.099Z,16.00
2023-05-17T16:30:23.536Z,16.10
2023-05-17T16:32:52.482Z,16.10
2023-05-17T16:35:22.584Z,16.10
2023-05-17T16:37:51.670Z,16.00
2023-05-17T16:40:20.603Z,16.00
2023-05-17T16:42:49.529Z,15.90
2023-05-17T16:45:19.828Z,16.00
2023-05-17T16:47:48.427Z,15.90
2023-05-17T16:50:17.596Z,15.80
2023-05-17T16:52:46.749Z,15.60
2023-05-17T16:55:16.082Z,15.80
2023-05-17T16:57:45.520Z,15.80
2023-05-17T17:00:15.629Z,15.80
2023-05-17T17:02:46.152Z,15.80
2023-05-17T17:05:15.172Z,15.70
2023-05-17T17:07:46.111Z,15.60
2023-05-17T17:10:15.249Z,15.60
2023-05-17T17:12:44.161Z,15.50
2023-05-17T17:15:13.362Z,15.50
2023-05-17T17:17:42.388Z,15.50
2023-05-17T17:20:17.982Z,15.50
2023-05-17T17:22:47.024Z,15.50
2023-05-17T17:25:15.640Z,15.50
2023-05-17T17:27:44.452Z,15.50
2023-05-17T17:30:13.847Z,15.40
2023-05-17T17:32:42.962Z,15.30
2023-05-17T17:35:14.077Z,15.30
2023-05-17T17:37:43.011Z,15.30
2023-05-17T17:40:12.783Z,15.20
2023-05-17T17:42:42.337Z,15.20
2023-05-17T17:45:12.175Z,15.10
2023-05-17T17:47:42.531Z,15.10
2023-05-17T17:50:12.888Z,15.10
2023-05-17T17:52:41.602Z,15.00
2023-05-17T17:55:13.437Z,15.00
2023-05-17T17:57:41.989Z,15.00
2023-05-17T18:00:12.934Z,15.00
2023-05-17T18:02:45.719Z,14.90
2023-05-17T18:05:16.350Z,14.80
2023-05-17T18:07:45.438Z,14.80
2023-05-17T18:10:14.279Z,14.80
2023-05-17T18:12:43.090Z,14.80
2023-05-17T18:15:12.914Z,14.60
2023-05-17T18:17:42.366Z,14.50
2023-05-17T18:20:11.482Z,14.40
2023-05-17T18:22:41.456Z,14.40
2023-05-17T18:25:10.739Z,14.40
2023-05-17T18:27:41.871Z,14.30
2023-05-17T18:30:12.331Z,14.30
2023-05-17T18:32:41.180Z,14.30
2023-05-17T18:35:10.724Z,14.20
2023-05-17T18:37:40.969Z,14.20
2023-05-17T18:40:10.807Z,14.10
2023-05-17T18:42:39.450Z,14.10
2023-05-17T18:45:09.326Z,14.00
2023-05-17T18:47:38.102Z,13.90
2023-05-17T18:50:07.495Z,13.90
2023-05-17T18:52:36.157Z,13.80
2023-05-17T18:55:07.385Z,13.70
2023-05-17T18:57:36.029Z,13.70
2023-05-17T19:00:05.453Z,13.60
2023-05-17T19:02:34.176Z,13.60
2023-05-17T19:05:03.209Z,13.50
2023-05-17T19:07:32.080Z,13.40
2023-05-17T19:10:00.760Z,13.40
2023-05-17T19:12:30.752Z,13.30
2023-05-17T19:14:59.376Z,13.20
2023-05-17T19:17:29.265Z,13.20
2023-05-17T19:19:57.818Z,13.10
2023-05-17T19:22:26.494Z,13.00
2023-05-17T19:24:55.067Z,12.90
2023-05-17T19:27:23.491Z,12.90
2023-05-17T19:29:53.651Z,12.80
2023-05-17T19:32:23.101Z,12.70
2023-05-17T19:34:52.548Z,12.70
2023-05-17T19:37:21.166Z,12.60
2023-05-17T19:39:49.665Z,12.60
2023-05-17T19:42:18.363Z,12.50
2023-05-17T19:44:46.911Z,12.40
2023-05-17T19:47:17.400Z,12.30
2023-05-17T19:49:46.010Z,12.30
2023-05-17T19:52:14.460Z,12.20
2023-05-17T19:54:43.297Z,12.20
2023-05-17T19:57:12.195Z,12.20
2023-05-17T19:59:41.196Z,12.10
2023-05-17T20:02:09.845Z,12.00
2023-05-17T20:04:41.479Z,12.00
2023-05-17T20:07:10.035Z,11.90
2023-05-17T20:09:40.018Z,11.90
2023-05-17T20:12:09.900Z,11.80
2023-05-17T20:14:38.730Z,11.70
2023-05-17T20:17:07.626Z,11.70
2023-05-17T20:19:36.474Z,11.60
2023-05-17T20:22:07.256Z,11.50
2023-05-17T20:24:36.361Z,11.50
2023-05-17T20:27:05.375Z,11.50
2023-05-17T20:29:34.221Z,11.40
2023-05-17T20:32:03.152Z,11.40
2023-05-17T20:34:32.039Z,11.30
2023-05-17T20:37:01.582Z,11.30
2023-05-17T20:39:32.045Z,11.20
2023-05-17T20:42:01.664Z,11.20
2023-05-17T20:44:30.489Z,11.10
2023-05-17T20:46:59.199Z,11.10
2023-05-17T20:49:27.738Z,11.00
2023-05-17T20:52:03.868Z,10.90
2023-05-17T20:54:34.416Z,10.90
2023-05-17T20:57:04.381Z,10.90
2023-05-17T20:59:32.934Z,10.80
2023-05-17T21:02:02.361Z,10.80
2023-05-17T21:04:31.053Z,10.80
2023-05-17T21:06:59.804Z,10.70
2023-05-17T21:09:28.975Z,10.70
2023-05-17T21:11:59.420Z,10.70
2023-05-17T21:14:29.487Z,10.60
2023-05-17T21:16:57.961Z,10.60
2023-05-17T21:19:26.831Z,10.60
2023-05-17T21:21:55.556Z,10.50
2023-05-17T21:24:24.633Z,10.50
2023-05-17T21:26:53.267Z,10.40
2023-05-17T21:29:23.376Z,10.40
2023-05-17T21:31:52.063Z,10.40
2023-05-17T21:34:20.771Z,10.30
2023-05-17T21:36:49.371Z,10.30
2023-05-17T21:39:18.300Z,10.20
2023-05-17T21:41:47.100Z,10.20
2023-05-17T21:44:15.526Z,10.10
2023-05-17T21:46:45.765Z,10.10
2023-05-17T21:49:14.388Z,10.10
2023-05-17T21:51:43.991Z,10.00
2023-05-17T21:54:12.897Z,10.00
2023-05-17T21:56:41.710Z,10.00
2023-05-17T21:59:10.592Z,9.90
2023-05-17T22:01:39.253Z,9.90
2023-05-17T22:04:09.718Z,9.90
2023-05-17T22:06:38.873Z,9.90
2023-05-17T22:09:07.865Z,9.90
2023-05-17T22:11:38.680Z,9.80
2023-05-17T22:14:07.956Z,9.80
2023-05-17T22:16:38.073Z,9.80
2023-05-17T22:19:08.665Z,9.70
2023-05-17T22:21:37.515Z,9.70
2023-05-17T22:24:07.167Z,9.70
2023-05-17T22:26:35.990Z,9.60
2023-05-17T22:29:04.685Z,9.60
2023-05-17T22:31:34.358Z,9.60
2023-05-17T22:34:03.188Z,9.50
2023-05-17T22:36:34.571Z,9.50
2023-05-17T22:39:03.261Z,9.50
2023-05-17T22:41:31.829Z,9.40
2023-05-17T22:44:00.311Z,9.40
2023-05-17T22:46:29.264Z,9.40
2023-05-17T22:48:59.296Z,9.30
2023-05-17T22:51:30.243Z,9.30
2023-05-17T22:54:00.858Z,9.30
2023-05-17T22:56:29.830Z,9.20
2023-05-17T22:58:59.421Z,9.10
2023-05-17T23:01:28.171Z,9.10
2023-05-17T23:03:57.384Z,9.10
2023-05-17T23:06:26.339Z,9.10
2023-05-17T23:08:55.083Z,9.00
2023-05-17T23:11:25.319Z,9.00
2023-05-17T23:13:53.931Z,9.00
2023-05-17T23:16:26.318Z,8.90
2023-05-17T23:18:55.243Z,8.90
2023-05-17T23:21:24.106Z,8.90
2023-05-17T23:23:53.765Z,8.80
2023-05-17T23:26:22.323Z,8.80
2023-05-17T23:28:53.952Z,8.80
2023-05-17T23:31:22.916Z,8.70
2023-05-17T23:33:52.333Z,8.70
2023-05-17T23:36:21.813Z,8.60
2023-05-17T23:38:50.618Z,8.60
2023-05-17T23:41:21.589Z,8.50
2023-05-17T23:43:52.205Z,8.50
2023-05-17T23:46:22.426Z,8.50
2023-05-17T23:48:51.625Z,8.40
2023-05-17T23:51:22.068Z,8.40
2023-05-17T23:53:50.841Z,8.40
2023-05-17T23:56:20.753Z,8.30
2023-05-17T23:58:49.603Z,8.20
